Time;durP1;ratioP1;P1;durP2;ratioP2;P2;SDS_P1;SDS_P2;PMS_P1;PMS_P2;Temp;Humidity;BMP_temperature;BMP_pressure;BME280_temperature;BME280_humidity;BME280_pressure;Samples;Min_cycle;Max_cycle;Signal;HPM_P1;HPM_P2
2021/08/06 00:02:18;;;;;;;3.55;1.70;;;;;;;17.10;100.00;100164.66;5218626;28;20098;-81
2021/08/06 00:04:48;;;;;;;3.85;2.10;;;;;;;17.09;100.00;100168.44;5236161;28;20035;-81
2021/08/06 00:07:21;;;;;;;3.35;1.83;;;;;;;17.14;100.00;100165.88;5234050;28;20021;-82
2021/08/06 00:09:52;;;;;;;5.70;2.17;;;;;;;17.17;100.00;100165.44;5235202;28;20071;-81
2021/08/06 00:12:22;;;;;;;2.85;1.95;;;;;;;17.20;100.00;100170.38;5234883;28;20037;-81
2021/08/06 00:14:53;;;;;;;5.53;2.10;;;;;;;17.28;100.00;100166.56;5218341;28;20036;-81
2021/08/06 00:17:23;;;;;;;11.45;2.33;;;;;;;17.31;100.00;100166.91;5217841;28;20021;-82
2021/08/06 00:19:54;;;;;;;7.32;2.13;;;;;;;17.44;100.00;100171.34;5235117;28;20028;-81
2021/08/06 00:22:24;;;;;;;2.15;1.65;;;;;;;17.44;100.00;100170.53;5234717;28;20033;-81
2021/08/06 00:24:55;;;;;;;3.05;2.08;;;;;;;17.45;100.00;100162.16;5235362;28;20528;-81
2021/08/06 00:27:25;;;;;;;4.00;1.85;;;;;;;17.48;100.00;100147.34;5200609;28;20025;-82
2021/08/06 00:29:56;;;;;;;2.47;2.03;;;;;;;17.53;100.00;100150.19;5235230;28;20025;-81
2021/08/06 00:32:26;;;;;;;5.75;1.90;;;;;;;17.52;100.00;100153.94;5235623;28;20071;-81
2021/08/06 00:34:57;;;;;;;5.28;1.77;;;;;;;17.55;100.00;100143.47;5217444;28;20108;-81
2021/08/06 00:37:28;;;;;;;6.40;1.85;;;;;;;17.53;100.00;100147.47;5234550;28;20089;-80
2021/08/06 00:39:59;;;;;;;2.90;2.22;;;;;;;17.57;100.00;100151.38;5233593;28;20075;-81
2021/08/06 00:42:29;;;;;;;6.05;2.05;;;;;;;17.59;100.00;100135.72;5233898;28;20033;-81
2021/08/06 00:45:00;;;;;;;5.10;1.95;;;;;;;17.67;100.00;100143.53;5233544;28;20103;-82
2021/08/06 00:47:31;;;;;;;2.65;1.77;;;;;;;17.70;100.00;100145.78;5232768;28;20025;-82
2021/08/06 00:50:02;;;;;;;5.70;2.08;;;;;;;17.74;100.00;100146.19;5232667;28;20024;-81
2021/08/06 00:52:33;;;;;;;3.08;1.92;;;;;;;17.70;100.00;100142.22;5231722;28;20063;-81
2021/08/06 00:55:05;;;;;;;3.83;1.75;;;;;;;17.75;100.00;100145.13;5232163;28;20021;-81
2021/08/06 00:57:36;;;;;;;4.97;1.70;;;;;;;17.67;100.00;100138.13;5214438;28;20025;-82
2021/08/06 01:00:07;;;;;;;3.90;1.40;;;;;;;17.65;100.00;100140.22;5213546;28;20409;-81
2021/08/06 01:02:47;;;;;;;3.33;1.80;;;;;;;17.64;100.00;100140.44;5231552;28;20066;-81
2021/08/06 01:05:25;;;;;;;1.90;1.42;;;;;;;17.63;100.00;100134.19;5220283;28;20017;-81
2021/08/06 01:08:06;;;;;;;3.70;1.85;;;;;;;17.59;100.00;100136.53;5231313;28;20009;-81
2021/08/06 01:10:45;;;;;;;8.65;1.95;;;;;;;17.59;100.00;100130.28;5231239;28;20029;-81
2021/08/06 01:13:20;;;;;;;4.82;1.63;;;;;;;17.59;100.00;100135.72;5231765;28;20036;-81
2021/08/06 01:16:03;;;;;;;4.63;2.03;;;;;;;17.64;100.00;100130.41;5232077;28;20033;-81
2021/08/06 01:18:36;;;;;;;2.22;1.60;;;;;;;17.61;100.00;100125.44;5232068;28;20514;-81
2021/08/06 01:21:14;;;;;;;5.38;2.30;;;;;;;17.61;100.00;100122.72;5231530;28;20048;-81
2021/08/06 01:23:45;;;;;;;3.97;1.77;;;;;;;17.54;100.00;100128.25;5213151;28;20418;-82
2021/08/06 01:26:19;;;;;;;4.00;1.92;;;;;;;17.55;100.00;100127.19;5219245;28;20009;-81
2021/08/06 01:28:50;;;;;;;2.90;1.77;;;;;;;17.49;100.00;100128.13;5231931;28;20025;-81
2021/08/06 01:31:29;;;;;;;7.78;2.80;;;;;;;17.42;100.00;100121.13;5231640;28;20021;-81
2021/08/06 01:33:59;;;;;;;3.60;1.92;;;;;;;17.34;100.00;100114.97;5213422;28;20051;-82
2021/08/06 01:36:30;;;;;;;4.32;1.88;;;;;;;17.28;100.00;100115.88;5213679;28;20024;-81
2021/08/06 01:39:01;;;;;;;3.13;2.00;;;;;;;17.22;100.00;100121.34;5230852;28;20500;-80
2021/08/06 01:41:50;;;;;;;2.42;1.70;;;;;;;17.18;100.00;100126.44;5210404;28;20029;-80
2021/08/06 01:44:29;;;;;;;2.95;1.85;;;;;;;17.23;100.00;100114.91;5228088;28;20029;-81
2021/08/06 01:47:04;;;;;;;2.90;1.88;;;;;;;17.28;100.00;100109.63;5227590;28;20040;-81
2021/08/06 01:49:43;;;;;;;6.00;2.13;;;;;;;17.33;100.00;100110.59;5227452;28;20102;-83
2021/08/06 01:52:17;;;;;;;4.47;1.77;;;;;;;17.35;100.00;100113.91;5227053;28;20021;-80
2021/08/06 01:54:54;;;;;;;3.05;1.77;;;;;;;17.34;100.00;100106.00;5226745;28;20020;-81
2021/08/06 01:57:27;;;;;;;4.13;1.92;;;;;;;17.35;100.00;100105.75;5226124;28;20060;-82
2021/08/06 02:00:00;;;;;;;5.07;2.00;;;;;;;17.39;100.00;100105.31;5187784;28;20026;-81
2021/08/06 02:02:31;;;;;;;3.63;1.73;;;;;;;17.38;100.00;100103.66;5218339;28;20494;-80
2021/08/06 02:05:03;;;;;;;4.13;1.95;;;;;;;17.40;100.00;100106.97;5194659;28;20035;-80
2021/08/06 02:07:34;;;;;;;6.30;1.80;;;;;;;17.42;100.00;100105.69;5224928;28;20024;-81
2021/08/06 02:10:05;;;;;;;5.43;1.88;;;;;;;17.47;100.00;100103.13;5232020;28;20104;-81
2021/08/06 02:12:37;;;;;;;5.57;1.95;;;;;;;17.48;100.00;100096.63;5233774;28;20056;-83
2021/08/06 02:15:09;;;;;;;4.10;1.73;;;;;;;17.52;100.00;100103.25;5235205;28;20021;-81
2021/08/06 02:17:41;;;;;;;8.40;2.13;;;;;;;17.54;100.00;100103.03;5236846;28;20025;-82
2021/08/06 02:20:13;;;;;;;4.72;1.75;;;;;;;17.53;100.00;100104.09;5234945;28;20040;-81
2021/08/06 02:22:45;;;;;;;2.83;1.60;;;;;;;17.54;100.00;100100.31;5237071;28;20033;-81
2021/08/06 02:25:20;;;;;;;2.03;1.45;;;;;;;17.51;100.00;100098.88;5234892;28;20024;-81
2021/08/06 02:27:52;;;;;;;3.25;1.90;;;;;;;17.47;100.00;100096.84;5221652;28;20014;-81
2021/08/06 02:30:24;;;;;;;2.80;1.70;;;;;;;17.43;100.00;100091.09;5235430;28;20025;-81
2021/08/06 02:32:56;;;;;;;4.10;1.65;;;;;;;17.40;100.00;100098.84;5225646;28;20482;-80
2021/08/06 02:35:27;;;;;;;2.28;1.60;;;;;;;17.28;100.00;100096.91;5226519;28;20044;-81
2021/08/06 02:37:58;;;;;;;4.55;2.00;;;;;;;17.19;100.00;100098.28;5229932;28;20409;-80
2021/08/06 02:40:28;;;;;;;5.20;2.10;;;;;;;17.18;100.00;100098.50;5239016;28;20078;-82
2021/08/06 02:42:59;;;;;;;3.42;1.83;;;;;;;17.05;100.00;100085.94;5244856;28;20040;-82
2021/08/06 02:45:30;;;;;;;6.15;1.95;;;;;;;16.89;100.00;100098.22;5230881;28;20278;-82
2021/08/06 02:48:00;;;;;;;4.00;2.08;;;;;;;16.79;100.00;100098.72;5249414;28;20036;-84
2021/08/06 02:50:31;;;;;;;6.43;2.60;;;;;;;16.79;100.00;100104.16;5221225;28;20024;-82
2021/08/06 02:53:01;;;;;;;6.80;2.05;;;;;;;16.69;100.00;100092.16;5230756;28;20297;-82
2021/08/06 02:55:32;;;;;;;5.78;2.35;;;;;;;16.60;100.00;100098.91;5230566;28;20494;-82
2021/08/06 02:58:03;;;;;;;4.70;2.10;;;;;;;16.54;100.00;100095.22;5230657;28;20026;-82
2021/08/06 03:00:33;;;;;;;3.42;2.20;;;;;;;16.54;100.00;100106.03;5230786;28;20024;-82
2021/08/06 03:03:04;;;;;;;3.60;2.25;;;;;;;16.48;100.00;100101.53;5225581;28;20494;-81
2021/08/06 03:05:34;;;;;;;5.72;1.90;;;;;;;16.44;100.00;100092.19;5215354;28;20067;-82
2021/08/06 03:08:05;;;;;;;4.30;2.05;;;;;;;16.42;100.00;100091.59;5224398;28;20026;-82
2021/08/06 03:10:35;;;;;;;4.03;1.98;;;;;;;16.39;100.00;100098.28;5222690;28;20470;-82
2021/08/06 03:13:06;;;;;;;2.67;2.10;;;;;;;16.35;100.00;100085.41;5230357;28;20029;-82
2021/08/06 03:15:36;;;;;;;6.32;2.45;;;;;;;16.30;100.00;100086.88;5230192;28;20151;-82
2021/08/06 03:18:07;;;;;;;4.15;2.38;;;;;;;16.27;100.00;100086.53;5230278;28;20465;-82
2021/08/06 03:20:37;;;;;;;5.68;2.78;;;;;;;16.27;100.00;100078.41;5230070;28;20024;-83
2021/08/06 03:23:08;;;;;;;4.20;2.47;;;;;;;16.27;100.00;100087.34;5221230;28;20033;-82
2021/08/06 03:25:38;;;;;;;3.67;2.15;;;;;;;16.29;100.00;100087.13;5211942;28;20056;-82
2021/08/06 03:28:09;;;;;;;4.40;2.85;;;;;;;16.28;100.00;100083.59;5229689;28;20024;-83
2021/08/06 03:30:40;;;;;;;9.02;3.45;;;;;;;16.26;100.00;100082.97;5229639;28;20033;-82
2021/08/06 03:33:11;;;;;;;7.35;3.05;;;;;;;16.27;100.00;100084.66;5229658;28;20501;-82
2021/08/06 03:35:42;;;;;;;5.53;2.90;;;;;;;16.28;100.00;100085.47;5229323;28;20029;-82
2021/08/06 03:38:21;;;;;;;6.78;3.47;;;;;;;16.27;100.00;100089.22;5229755;28;20029;-82
2021/08/06 03:40:53;;;;;;;5.28;2.95;;;;;;;16.28;100.00;100086.28;5229381;28;20033;-82
2021/08/06 03:43:23;;;;;;;7.38;3.03;;;;;;;16.29;100.00;100087.94;5227238;28;20115;-83
2021/08/06 03:45:54;;;;;;;6.43;3.05;;;;;;;16.29;100.00;100079.81;5217530;28;20028;-82
2021/08/06 03:48:24;;;;;;;6.50;3.47;;;;;;;16.30;100.00;100088.78;5228919;28;20029;-82
2021/08/06 03:50:55;;;;;;;7.82;3.47;;;;;;;16.37;100.00;100099.56;5228673;28;20148;-82
2021/08/06 03:53:25;;;;;;;4.75;2.45;;;;;;;16.29;100.00;100104.19;5224754;28;20447;-83
2021/08/06 03:55:56;;;;;;;3.35;2.80;;;;;;;16.25;100.00;100113.78;5219791;28;20033;-83
2021/08/06 03:58:26;;;;;;;6.40;2.83;;;;;;;16.25;100.00;100113.78;5229030;28;20278;-83
2021/08/06 04:00:57;;;;;;;3.83;2.60;;;;;;;16.19;100.00;100120.09;5228944;28;20094;-82
2021/08/06 04:03:27;;;;;;;5.15;2.70;;;;;;;16.17;100.00;100115.97;5221690;28;20017;-83
2021/08/06 04:05:58;;;;;;;10.80;3.00;;;;;;;16.09;100.00;100116.22;5221671;28;20053;-83
2021/08/06 04:08:28;;;;;;;6.93;2.35;;;;;;;16.16;100.00;100112.41;5217145;28;20059;-83
2021/08/06 04:10:59;;;;;;;4.18;3.08;;;;;;;16.03;100.00;100120.66;5228689;28;20056;-83
2021/08/06 04:13:29;;;;;;;6.78;2.97;;;;;;;16.05;100.00;100123.94;5229694;28;20047;-82
2021/08/06 04:16:00;;;;;;;4.30;2.80;;;;;;;15.98;100.00;100125.88;5224905;28;20463;-82
2021/08/06 04:18:30;;;;;;;4.47;2.97;;;;;;;15.95;100.00;100127.13;5219132;28;20025;-82
2021/08/06 04:21:01;;;;;;;5.30;3.10;;;;;;;15.87;100.00;100127.41;5228629;28;20029;-82
2021/08/06 04:23:31;;;;;;;5.68;2.85;;;;;;;15.82;100.00;100129.13;5228155;28;20064;-82
2021/08/06 04:26:02;;;;;;;5.13;2.92;;;;;;;15.76;100.00;100131.66;5228460;28;20033;-82
2021/08/06 04:28:32;;;;;;;5.90;2.95;;;;;;;15.72;100.00;100126.88;5228572;28;20029;-82
2021/08/06 04:31:05;;;;;;;5.00;2.40;;;;;;;15.73;100.00;100134.78;5228234;28;20099;-82
2021/08/06 04:33:35;;;;;;;4.15;2.55;;;;;;;15.70;100.00;100134.38;5228157;28;20555;-82
2021/08/06 04:36:06;;;;;;;5.40;2.47;;;;;;;15.68;100.00;100141.88;5228348;28;20029;-82
2021/08/06 04:38:36;;;;;;;5.72;2.67;;;;;;;15.63;100.00;100139.81;5225235;28;20043;-82
2021/08/06 04:41:07;;;;;;;4.20;2.50;;;;;;;15.63;100.00;100147.09;5217469;28;20481;-83
2021/08/06 04:43:37;;;;;;;4.40;2.85;;;;;;;15.65;100.00;100155.81;5227629;28;20102;-82
2021/08/06 04:46:08;;;;;;;4.60;2.42;;;;;;;15.64;100.00;100156.88;5228114;28;20079;-82
2021/08/06 04:48:38;;;;;;;6.28;2.60;;;;;;;15.61;100.00;100155.38;5227710;28;20036;-82
2021/08/06 04:51:09;;;;;;;9.50;3.20;;;;;;;15.57;100.00;100150.66;5227964;28;20099;-82
2021/08/06 04:53:39;;;;;;;5.05;2.58;;;;;;;15.55;100.00;100156.25;5227601;28;20021;-82
2021/08/06 04:56:10;;;;;;;6.90;2.83;;;;;;;15.53;100.00;100150.25;5227599;28;20308;-82
2021/08/06 04:58:41;;;;;;;6.85;2.63;;;;;;;15.52;100.00;100156.72;5226028;28;20029;-81
2021/08/06 05:01:11;;;;;;;4.82;2.88;;;;;;;15.50;100.00;100158.78;5225869;28;20112;-81
2021/08/06 05:03:42;;;;;;;3.72;2.67;;;;;;;15.52;100.00;100156.72;5216605;28;20292;-81
2021/08/06 05:06:13;;;;;;;10.18;3.33;;;;;;;15.52;100.00;100145.91;5221990;28;20029;-81
2021/08/06 05:08:48;;;;;;;3.75;2.80;;;;;;;15.52;100.00;100160.25;5214596;28;20394;-81
2021/08/06 05:11:19;;;;;;;5.35;3.33;;;;;;;15.57;100.00;100161.47;5224165;28;20078;-82
2021/08/06 05:13:49;;;;;;;5.40;2.75;;;;;;;15.54;100.00;100154.59;5225640;28;20029;-82
2021/08/06 05:16:20;;;;;;;6.32;2.83;;;;;;;15.53;100.00;100153.78;5212304;28;20363;-82
2021/08/06 05:18:50;;;;;;;7.75;3.38;;;;;;;15.54;100.00;100160.00;5227444;28;20421;-82
2021/08/06 05:21:21;;;;;;;6.82;3.03;;;;;;;15.60;100.00;100158.31;5227219;28;20029;-81
2021/08/06 05:23:51;;;;;;;7.10;3.30;;;;;;;15.65;100.00;100161.22;5225463;28;20021;-82
2021/08/06 05:26:22;;;;;;;6.70;3.30;;;;;;;15.67;100.00;100168.09;5216188;28;20017;-83
2021/08/06 05:28:52;;;;;;;6.80;3.33;;;;;;;15.72;100.00;100162.03;5227154;28;20425;-82
2021/08/06 05:31:23;;;;;;;10.13;3.95;;;;;;;15.77;100.00;100165.75;5227381;28;20075;-82
2021/08/06 05:33:53;;;;;;;4.50;2.88;;;;;;;15.82;100.00;100162.41;5227195;28;20025;-83
2021/08/06 05:36:24;;;;;;;7.15;3.70;;;;;;;15.86;100.00;100166.31;5226992;28;20056;-83
2021/08/06 05:38:54;;;;;;;6.80;3.70;;;;;;;15.95;100.00;100177.72;5227087;28;20119;-82
2021/08/06 05:41:25;;;;;;;6.15;3.63;;;;;;;16.03;100.00;100174.75;5227044;28;20024;-81
2021/08/06 05:43:55;;;;;;;6.95;3.17;;;;;;;16.16;100.00;100168.41;5226812;28;20021;-82
2021/08/06 05:46:26;;;;;;;5.53;3.20;;;;;;;16.26;100.00;100174.16;5227089;28;20052;-83
2021/08/06 05:48:56;;;;;;;6.32;3.20;;;;;;;16.42;100.00;100172.81;5219312;28;20041;-81
2021/08/06 05:51:27;;;;;;;5.03;2.85;;;;;;;16.49;100.00;100185.22;5220806;28;20430;-81
2021/08/06 05:53:57;;;;;;;5.63;2.70;;;;;;;16.56;100.00;100175.16;5226886;28;20481;-81
2021/08/06 05:56:28;;;;;;;9.68;2.80;;;;;;;16.65;100.00;100183.84;5226351;28;20044;-80
2021/08/06 05:58:58;;;;;;;5.35;2.75;;;;;;;16.72;100.00;100173.81;5226205;28;20036;-81
2021/08/06 06:01:29;;;;;;;5.15;3.28;;;;;;;16.83;100.00;100175.78;5226003;28;20031;-81
2021/08/06 06:04:00;;;;;;;14.93;2.95;;;;;;;16.99;100.00;100179.78;5214586;28;20056;-81
2021/08/06 06:06:33;;;;;;;7.28;2.63;;;;;;;17.03;100.00;100180.19;5225147;28;20025;-80
2021/08/06 06:09:03;;;;;;;4.82;2.55;;;;;;;17.09;100.00;100190.94;5226438;28;20036;-82
2021/08/06 06:11:34;;;;;;;8.82;2.88;;;;;;;17.13;100.00;100196.75;5226222;28;20025;-83
2021/08/06 06:14:04;;;;;;;7.63;2.72;;;;;;;17.48;100.00;100193.44;5226245;28;20115;-84
2021/08/06 06:16:35;;;;;;;8.95;2.60;;;;;;;17.68;100.00;100199.44;5226300;28;20087;-81
2021/08/06 06:19:05;;;;;;;6.70;2.50;;;;;;;17.89;100.00;100198.13;5226298;28;20036;-84
2021/08/06 06:21:36;;;;;;;4.18;2.42;;;;;;;17.69;100.00;100195.66;5225964;28;20021;-82
2021/08/06 06:24:06;;;;;;;5.28;2.13;;;;;;;17.69;100.00;100202.97;5225791;28;20025;-83
2021/08/06 06:26:37;;;;;;;14.77;2.58;;;;;;;17.71;100.00;100200.84;5226428;28;20021;-82
2021/08/06 06:29:07;;;;;;;7.57;2.83;;;;;;;17.74;100.00;100198.53;5226179;28;20025;-81
2021/08/06 06:31:38;;;;;;;12.65;2.35;;;;;;;18.15;100.00;100196.94;5226648;28;20028;-81
2021/08/06 06:34:08;;;;;;;5.63;2.80;;;;;;;18.38;100.00;100199.72;5225848;28;20032;-82
2021/08/06 06:36:39;;;;;;;5.65;2.88;;;;;;;18.30;100.00;100194.59;5226515;28;20115;-82
2021/08/06 06:39:09;;;;;;;7.60;2.60;;;;;;;18.11;100.00;100198.44;5212627;28;20032;-81
2021/08/06 06:41:40;;;;;;;7.47;2.88;;;;;;;18.25;100.00;100205.34;5225769;28;20052;-81
2021/08/06 06:44:10;;;;;;;7.78;2.95;;;;;;;18.44;100.00;100207.97;5225413;28;20092;-83
2021/08/06 06:46:40;;;;;;;9.27;3.50;;;;;;;18.54;100.00;100208.22;5225456;28;20021;-82
2021/08/06 06:49:12;;;;;;;9.85;3.45;;;;;;;18.98;100.00;100219.66;5226166;28;20029;-82
2021/08/06 06:51:43;;;;;;;9.05;2.72;;;;;;;19.40;100.00;100221.13;5226070;28;20096;-84
2021/08/06 06:54:13;;;;;;;7.60;2.40;;;;;;;19.64;100.00;100219.22;5226177;28;20041;-81
2021/08/06 06:56:44;;;;;;;9.60;2.78;;;;;;;19.66;100.00;100214.34;5226108;28;20029;-82
2021/08/06 06:59:14;;;;;;;6.47;2.30;;;;;;;19.61;100.00;100216.97;5226095;28;20029;-82
2021/08/06 07:01:45;;;;;;;12.23;2.85;;;;;;;19.31;100.00;100211.69;5226280;28;20114;-83
2021/08/06 07:04:15;;;;;;;7.72;3.17;;;;;;;18.85;100.00;100215.25;5212237;28;20029;-81
2021/08/06 07:06:45;;;;;;;6.80;2.50;;;;;;;18.98;100.00;100220.47;5225956;28;20066;-84
2021/08/06 07:09:16;;;;;;;9.50;2.88;;;;;;;18.86;100.00;100219.63;5219758;28;20505;-82
2021/08/06 07:11:47;;;;;;;8.55;2.65;;;;;;;18.78;100.00;100220.81;5194273;28;20135;-83
2021/08/06 07:14:17;;;;;;;10.73;2.85;;;;;;;18.87;100.00;100216.66;5200619;28;20534;-81
2021/08/06 07:16:48;;;;;;;7.50;2.75;;;;;;;18.87;100.00;100224.81;5224485;28;20057;-83
2021/08/06 07:19:18;;;;;;;10.02;3.38;;;;;;;19.07;100.00;100226.34;5220311;28;20029;-81
2021/08/06 07:21:49;;;;;;;5.85;2.95;;;;;;;19.22;100.00;100226.69;5216251;28;20056;-81
2021/08/06 07:24:19;;;;;;;6.65;2.30;;;;;;;19.25;100.00;100222.69;5227260;28;20049;-82
2021/08/06 07:26:50;;;;;;;9.20;2.67;;;;;;;19.18;100.00;100228.25;5211096;28;20478;-83
2021/08/06 07:29:21;;;;;;;8.27;3.08;;;;;;;19.18;100.00;100230.13;5227902;28;20025;-82
2021/08/06 07:31:51;;;;;;;11.13;2.35;;;;;;;19.20;100.00;100233.44;5228945;28;20426;-80
2021/08/06 07:34:22;;;;;;;9.48;2.47;;;;;;;18.92;100.00;100228.72;5213709;28;20025;-81
2021/08/06 07:36:52;;;;;;;9.32;2.13;;;;;;;18.98;100.00;100228.63;5227942;28;20481;-82
2021/08/06 07:39:23;;;;;;;6.88;2.38;;;;;;;19.03;100.00;100230.63;5227518;28;20112;-82
2021/08/06 07:41:54;;;;;;;6.70;1.88;;;;;;;18.98;100.00;100233.25;5228156;28;20116;-81
2021/08/06 07:44:24;;;;;;;7.38;2.15;;;;;;;18.98;100.00;100238.66;5227646;28;20083;-82
2021/08/06 07:46:55;;;;;;;9.05;2.40;;;;;;;18.84;100.00;100241.59;5227907;28;20027;-81
2021/08/06 07:49:25;;;;;;;8.27;2.65;;;;;;;18.64;100.00;100239.19;5227583;28;20033;-80
2021/08/06 07:51:56;;;;;;;5.55;2.38;;;;;;;18.66;100.00;100247.09;5227683;28;20029;-83
2021/08/06 07:54:26;;;;;;;9.93;3.30;;;;;;;18.69;100.00;100246.69;5227734;28;20025;-82
2021/08/06 07:56:57;;;;;;;9.00;1.83;;;;;;;18.68;100.00;100247.75;5227984;28;20048;-80
2021/08/06 07:59:28;;;;;;;8.63;2.38;;;;;;;18.74;100.00;100244.09;5226090;28;20029;-79
2021/08/06 08:01:59;;;;;;;14.18;2.85;;;;;;;18.72;100.00;100248.06;5226446;28;20049;-81
2021/08/06 08:04:29;;;;;;;10.52;2.42;;;;;;;18.93;100.00;100246.72;5212029;28;20024;-80
2021/08/06 08:07:00;;;;;;;7.55;2.08;;;;;;;19.06;100.00;100239.13;5227581;28;20032;-82
2021/08/06 08:09:31;;;;;;;3.25;1.88;;;;;;;18.89;100.00;100240.91;5227732;28;20068;-83
2021/08/06 08:12:01;;;;;;;4.28;1.77;;;;;;;19.06;100.00;100250.00;5226768;28;20025;-80
2021/08/06 08:14:32;;;;;;;7.95;2.00;;;;;;;19.38;100.00;100250.47;5225833;28;20021;-81
2021/08/06 08:17:03;;;;;;;4.93;1.70;;;;;;;19.96;100.00;100254.13;5225679;28;20022;-80
2021/08/06 08:19:34;;;;;;;6.00;2.00;;;;;;;19.97;100.00;100257.66;5236281;28;20191;-81
2021/08/06 08:22:04;;;;;;;4.47;1.63;;;;;;;19.96;100.00;100259.56;5251702;28;20025;-81
2021/08/06 08:24:37;;;;;;;5.43;1.58;;;;;;;19.98;100.00;100256.59;5250723;28;20047;-82
2021/08/06 08:27:07;;;;;;;8.98;2.28;;;;;;;19.79;100.00;100258.69;5236226;28;20023;-81
2021/08/06 08:29:38;;;;;;;5.70;2.58;;;;;;;19.92;100.00;100261.94;5219810;28;20029;-79
2021/08/06 08:32:08;;;;;;;3.53;1.70;;;;;;;19.90;100.00;100260.53;5222801;28;20022;-80
2021/08/06 08:34:39;;;;;;;5.22;1.90;;;;;;;20.01;100.00;100264.28;5214655;28;20021;-81
2021/08/06 08:37:10;;;;;;;5.53;1.90;;;;;;;19.82;100.00;100255.47;5225680;28;20538;-81
2021/08/06 08:39:41;;;;;;;4.38;1.77;;;;;;;19.56;100.00;100260.34;5225612;28;20025;-80
2021/08/06 08:42:12;;;;;;;3.47;2.10;;;;;;;19.31;100.00;100266.06;5225810;28;20028;-79
2021/08/06 08:44:43;;;;;;;4.13;1.80;;;;;;;19.30;100.00;100261.69;5226039;28;20021;-80
2021/08/06 08:47:17;;;;;;;9.57;2.03;;;;;;;19.12;100.00;100270.78;5201538;28;20072;-81
2021/08/06 08:49:51;;;;;;;4.60;2.30;;;;;;;19.10;100.00;100272.09;5220150;28;20072;-83
2021/08/06 08:52:23;;;;;;;5.30;1.60;;;;;;;19.20;100.00;100269.63;5226485;28;20107;-81
2021/08/06 08:54:53;;;;;;;6.95;2.08;;;;;;;19.13;100.00;100260.78;5225867;28;20478;-82
2021/08/06 08:57:24;;;;;;;3.08;1.70;;;;;;;19.53;100.00;100271.72;5226507;28;20037;-84
2021/08/06 08:59:55;;;;;;;6.07;2.00;;;;;;;19.91;100.00;100273.91;5225850;28;20032;-81
2021/08/06 09:02:26;;;;;;;4.15;1.70;;;;;;;19.99;100.00;100275.44;5226296;28;20106;-81
2021/08/06 09:05:17;;;;;;;4.45;2.00;;;;;;;20.23;100.00;100273.44;5226221;28;20056;-82
2021/08/06 09:07:49;;;;;;;6.22;1.83;;;;;;;20.41;100.00;100269.69;5212806;28;20461;-81
2021/08/06 09:10:25;;;;;;;2.28;1.45;;;;;;;20.15;100.00;100284.72;5225803;28;20486;-82
2021/08/06 09:13:00;;;;;;;5.38;1.90;;;;;;;20.10;100.00;100277.28;5225863;28;20025;-82
2021/08/06 09:15:43;;;;;;;3.30;1.88;;;;;;;20.01;100.00;100278.72;5226097;28;20390;-81
2021/08/06 09:18:27;;;;;;;4.10;2.17;;;;;;;19.99;100.00;100288.22;5213301;28;20113;-81
2021/08/06 09:21:02;;;;;;;4.15;1.52;;;;;;;19.87;100.00;100288.22;5224947;28;20494;-80
2021/08/06 09:23:42;;;;;;;4.15;2.42;;;;;;;19.82;100.00;100293.56;5225279;28;20025;-80
2021/08/06 09:26:33;;;;;;;2.90;1.80;;;;;;;19.59;100.00;100283.56;5212282;28;20506;-81
2021/08/06 09:29:13;;;;;;;5.45;1.58;;;;;;;19.87;100.00;100289.06;5224781;28;20033;-84
2021/08/06 09:31:56;;;;;;;7.53;1.92;;;;;;;19.99;100.00;100285.50;5207237;28;20029;-80
2021/08/06 09:34:29;;;;;;;4.72;1.73;;;;;;;19.71;100.00;100280.81;5225349;28;20111;-82
2021/08/06 09:37:07;;;;;;;5.45;1.80;;;;;;;19.78;100.00;100290.53;5224870;28;20033;-80
2021/08/06 09:39:40;;;;;;;5.93;1.80;;;;;;;19.92;100.00;100289.16;5224420;28;20091;-81
2021/08/06 09:42:31;;;;;;;2.60;1.75;;;;;;;20.08;100.00;100284.88;5225392;28;20031;-82
2021/08/06 09:45:04;;;;;;;2.92;1.60;;;;;;;20.47;100.00;100289.69;5224633;28;20445;-81
2021/08/06 09:47:39;;;;;;;3.08;1.60;;;;;;;20.50;100.00;100281.88;5225457;28;20098;-84
2021/08/06 09:50:14;;;;;;;2.40;1.30;;;;;;;20.64;100.00;100276.94;5224627;28;20037;-81
2021/08/06 09:52:47;;;;;;;2.05;1.20;;;;;;;20.56;100.00;100280.06;5224910;28;20477;-84
2021/08/06 09:55:21;;;;;;;2.45;1.42;;;;;;;20.63;100.00;100281.56;5211313;28;20099;-82
2021/08/06 09:57:53;;;;;;;2.80;1.50;;;;;;;20.54;100.00;100274.03;5224732;28;20029;-84
2021/08/06 10:00:25;;;;;;;8.50;1.50;;;;;;;20.78;100.00;100271.97;5224227;28;20131;-82
2021/08/06 10:02:56;;;;;;;6.15;1.73;;;;;;;20.62;100.00;100284.50;5224355;28;20092;-82
2021/08/06 10:05:28;;;;;;;5.38;1.63;;;;;;;20.06;100.00;100310.69;5224550;28;20096;-83
2021/08/06 10:08:02;;;;;;;11.63;1.90;;;;;;;19.14;100.00;100306.75;5224061;28;20025;-85
2021/08/06 10:10:36;;;;;;;6.82;1.80;;;;;;;18.86;100.00;100295.72;5224919;28;20020;-81
2021/08/06 10:13:07;;;;;;;2.70;1.77;;;;;;;18.86;100.00;100285.66;5223776;28;20513;-83
2021/08/06 10:15:37;;;;;;;12.48;3.00;;;;;;;19.19;100.00;100287.00;5223626;28;20032;-83
2021/08/06 10:18:08;;;;;;;6.53;1.17;;;;;;;19.48;100.00;100287.94;5211586;28;20044;-81
2021/08/06 10:20:38;;;;;;;2.70;1.15;;;;;;;19.46;100.00;100289.22;5222327;28;20029;-82
2021/08/06 10:23:09;;;;;;;2.85;0.88;;;;;;;19.45;100.00;100298.47;5212278;28;20020;-82
2021/08/06 10:25:40;;;;;;;4.05;1.40;;;;;;;19.57;100.00;100283.78;5223548;28;20124;-81
2021/08/06 10:28:11;;;;;;;4.78;1.48;;;;;;;19.78;100.00;100285.09;5223919;28;20024;-80
2021/08/06 10:30:41;;;;;;;2.67;1.13;;;;;;;19.94;100.00;100282.69;5205555;28;20021;-81
2021/08/06 10:33:23;;;;;;;2.85;1.00;;;;;;;20.06;100.00;100291.63;5211886;28;20036;-83
2021/08/06 10:36:06;;;;;;;1.27;0.80;;;;;;;20.01;100.00;100288.78;5222404;28;20039;-82
2021/08/06 10:38:36;;;;;;;1.17;0.65;;;;;;;19.87;100.00;100297.22;5223632;28;20032;-80
2021/08/06 10:41:16;;;;;;;2.17;0.77;;;;;;;19.22;100.00;100285.69;5222991;28;20035;-83
2021/08/06 10:43:48;;;;;;;4.80;0.85;;;;;;;18.91;100.00;100305.88;5223077;28;20211;-82
2021/08/06 10:46:20;;;;;;;2.15;1.05;;;;;;;18.82;100.00;100297.25;5210887;28;20049;-82
2021/08/06 10:48:53;;;;;;;4.20;1.42;;;;;;;18.61;100.00;100304.03;5215692;28;20040;-81
2021/08/06 10:51:27;;;;;;;3.28;1.20;;;;;;;18.99;100.00;100298.22;5216500;28;20094;-81
2021/08/06 10:53:58;;;;;;;1.55;1.10;;;;;;;19.54;100.00;100303.31;5223082;28;20083;-81
2021/08/06 10:56:31;;;;;;;7.07;1.35;;;;;;;19.86;100.00;100287.41;5223083;28;20386;-83
2021/08/06 10:59:11;;;;;;;3.50;1.23;;;;;;;20.01;100.00;100294.25;5226937;28;20104;-83
2021/08/06 11:01:48;;;;;;;8.80;1.60;;;;;;;20.44;100.00;100300.00;5209330;28;20021;-82
2021/08/06 11:04:19;;;;;;;2.13;1.05;;;;;;;20.56;100.00;100299.13;5227144;28;20032;-81
2021/08/06 11:06:52;;;;;;;2.97;1.42;;;;;;;20.61;100.00;100293.78;5226814;28;20635;-82
2021/08/06 11:11:59;;;;;;;2.55;1.30;;;;;;;20.72;100.00;100289.31;5227261;28;20507;-82
2021/08/06 11:14:29;;;;;;;2.38;1.17;;;;;;;20.91;100.00;100288.84;5226731;28;20436;-82
2021/08/06 11:17:08;;;;;;;4.93;1.58;;;;;;;21.08;100.00;100297.00;5226659;28;20025;-81
2021/08/06 11:19:52;;;;;;;3.17;1.17;;;;;;;21.35;100.00;100280.81;5226637;28;20024;-82
2021/08/06 11:22:29;;;;;;;6.70;1.40;;;;;;;21.48;100.00;100285.06;5224772;28;20051;-81
2021/08/06 11:25:06;;;;;;;3.35;1.10;;;;;;;21.44;100.00;100282.03;5218258;28;20113;-82
2021/08/06 11:27:41;;;;;;;2.72;1.13;;;;;;;21.78;100.00;100275.63;5229133;28;20016;-81
2021/08/06 11:30:20;;;;;;;2.67;0.80;;;;;;;21.58;100.00;100268.00;5232914;28;20084;-81
2021/08/06 11:32:57;;;;;;;4.30;1.17;;;;;;;21.34;100.00;100276.44;5226179;28;20349;-82
2021/08/06 11:35:32;;;;;;;6.05;1.50;;;;;;;20.64;100.00;100299.56;5223041;28;20040;-82
2021/08/06 11:38:05;;;;;;;2.55;1.38;;;;;;;20.21;100.00;100305.53;5205695;28;20135;-82
2021/08/06 11:40:38;;;;;;;5.45;1.60;;;;;;;19.74;100.00;100319.28;5224899;28;20031;-81
2021/08/06 11:43:10;;;;;;;2.17;1.30;;;;;;;19.79;100.00;100308.50;5225367;28;20037;-81